sensor_id;sensor_type;location;lat;lon;timestamp;P1;durP1;ratioP1;P2;durP2;ratioP2
38779;SDS011;29273;49.962;9.768;2023-05-23T00:00:20;3.92;;;3.53;;
38779;SDS011;29273;49.962;9.768;2023-05-23T00:02:46;3.95;;;3.10;;
38779;SDS011;29273;49.962;9.768;2023-05-23T00:05:12;5.25;;;3.20;;
38779;SDS011;29273;49.962;9.768;2023-05-23T00:07:39;3.45;;;3.13;;
38779;SDS011;29273;49.962;9.768;2023-05-23T00:10:05;3.45;;;3.15;;
38779;SDS011;29273;49.962;9.768;2023-05-23T00:12:31;3.28;;;2.90;;
38779;SDS011;29273;49.962;9.768;2023-05-23T00:14:57;3.60;;;3.10;;
38779;SDS011;29273;49.962;9.768;2023-05-23T00:17:23;3.30;;;3.00;;
38779;SDS011;29273;49.962;9.768;2023-05-23T00:19:49;4.28;;;3.47;;
38779;SDS011;29273;49.962;9.768;2023-05-23T00:22:15;3.65;;;3.35;;
38779;SDS011;29273;49.962;9.768;2023-05-23T00:24:41;3.60;;;3.30;;
38779;SDS011;29273;49.962;9.768;2023-05-23T00:27:07;3.55;;;3.20;;
38779;SDS011;29273;49.962;9.768;2023-05-23T00:29:32;3.50;;;3.20;;
38779;SDS011;29273;49.962;9.768;2023-05-23T00:31:58;3.10;;;2.80;;
38779;SDS011;29273;49.962;9.768;2023-05-23T00:34:23;3.67;;;3.17;;
38779;SDS011;29273;49.962;9.768;2023-05-23T00:36:49;3.50;;;3.13;;
38779;SDS011;29273;49.962;9.768;2023-05-23T00:39:15;3.47;;;3.17;;
38779;SDS011;29273;49.962;9.768;2023-05-23T00:41:47;3.08;;;2.78;;
38779;SDS011;29273;49.962;9.768;2023-05-23T00:44:13;3.40;;;3.10;;
38779;SDS011;29273;49.962;9.768;2023-05-23T00:46:39;3.47;;;3.17;;
38779;SDS011;29273;49.962;9.768;2023-05-23T00:49:08;3.00;;;2.80;;
38779;SDS011;29273;49.962;9.768;2023-05-23T00:51:34;3.78;;;3.10;;
38779;SDS011;29273;49.962;9.768;2023-05-23T00:54:00;3.67;;;3.28;;
38779;SDS011;29273;49.962;9.768;2023-05-23T00:56:28;3.53;;;3.15;;
38779;SDS011;29273;49.962;9.768;2023-05-23T00:58:54;3.50;;;3.20;;
38779;SDS011;29273;49.962;9.768;2023-05-23T01:01:20;3.53;;;3.22;;
38779;SDS011;29273;49.962;9.768;2023-05-23T01:03:46;3.42;;;3.13;;
38779;SDS011;29273;49.962;9.768;2023-05-23T01:06:12;3.70;;;3.40;;
38779;SDS011;29273;49.962;9.768;2023-05-23T01:08:39;3.70;;;3.40;;
38779;SDS011;29273;49.962;9.768;2023-05-23T01:11:10;4.20;;;3.80;;
38779;SDS011;29273;49.962;9.768;2023-05-23T01:13:41;3.45;;;3.15;;
38779;SDS011;29273;49.962;9.768;2023-05-23T01:16:28;3.78;;;3.42;;
38779;SDS011;29273;49.962;9.768;2023-05-23T01:21:47;3.88;;;3.30;;
38779;SDS011;29273;49.962;9.768;2023-05-23T01:24:42;3.40;;;3.10;;
38779;SDS011;29273;49.962;9.768;2023-05-23T01:27:21;3.92;;;3.53;;
38779;SDS011;29273;49.962;9.768;2023-05-23T01:29:55;3.95;;;3.55;;
38779;SDS011;29273;49.962;9.768;2023-05-23T01:32:22;3.25;;;2.90;;
38779;SDS011;29273;49.962;9.768;2023-05-23T01:34:51;4.60;;;3.10;;
38779;SDS011;29273;49.962;9.768;2023-05-23T01:37:18;4.10;;;3.75;;
38779;SDS011;29273;49.962;9.768;2023-05-23T01:39:44;3.58;;;3.28;;
38779;SDS011;29273;49.962;9.768;2023-05-23T01:42:09;3.83;;;3.30;;
38779;SDS011;29273;49.962;9.768;2023-05-23T01:44:35;3.90;;;3.47;;
38779;SDS011;29273;49.962;9.768;2023-05-23T01:47:02;4.05;;;3.65;;
38779;SDS011;29273;49.962;9.768;2023-05-23T01:49:29;3.72;;;3.42;;
38779;SDS011;29273;49.962;9.768;2023-05-23T01:51:57;4.03;;;3.63;;
38779;SDS011;29273;49.962;9.768;2023-05-23T01:54:24;3.85;;;3.30;;
38779;SDS011;29273;49.962;9.768;2023-05-23T01:56:50;4.35;;;3.45;;
38779;SDS011;29273;49.962;9.768;2023-05-23T01:59:16;4.13;;;3.60;;
38779;SDS011;29273;49.962;9.768;2023-05-23T02:01:42;3.65;;;3.33;;
38779;SDS011;29273;49.962;9.768;2023-05-23T02:04:08;3.40;;;3.10;;
38779;SDS011;29273;49.962;9.768;2023-05-23T02:06:33;3.80;;;3.42;;
38779;SDS011;29273;49.962;9.768;2023-05-23T02:08:59;3.85;;;3.30;;
38779;SDS011;29273;49.962;9.768;2023-05-23T02:11:24;3.47;;;3.17;;
38779;SDS011;29273;49.962;9.768;2023-05-23T02:13:51;4.22;;;3.40;;
38779;SDS011;29273;49.962;9.768;2023-05-23T02:16:16;4.35;;;3.50;;
38779;SDS011;29273;49.962;9.768;2023-05-23T02:18:42;3.30;;;3.00;;
38779;SDS011;29273;49.962;9.768;2023-05-23T02:21:11;3.42;;;3.13;;
38779;SDS011;29273;49.962;9.768;2023-05-23T02:23:36;3.63;;;3.28;;
38779;SDS011;29273;49.962;9.768;2023-05-23T02:26:02;3.15;;;2.85;;
38779;SDS011;29273;49.962;9.768;2023-05-23T02:28:27;3.22;;;2.92;;
38779;SDS011;29273;49.962;9.768;2023-05-23T02:30:53;4.80;;;3.47;;
38779;SDS011;29273;49.962;9.768;2023-05-23T02:33:18;3.15;;;2.85;;
38779;SDS011;29273;49.962;9.768;2023-05-23T02:35:44;4.75;;;3.17;;
38779;SDS011;29273;49.962;9.768;2023-05-23T02:38:09;3.20;;;2.92;;
38779;SDS011;29273;49.962;9.768;2023-05-23T02:40:35;3.70;;;3.40;;
38779;SDS011;29273;49.962;9.768;2023-05-23T02:43:00;3.58;;;3.28;;
38779;SDS011;29273;49.962;9.768;2023-05-23T02:45:26;3.47;;;2.88;;
38779;SDS011;29273;49.962;9.768;2023-05-23T02:47:51;3.42;;;3.13;;
38779;SDS011;29273;49.962;9.768;2023-05-23T02:50:17;3.47;;;3.17;;
38779;SDS011;29273;49.962;9.768;2023-05-23T02:52:42;3.50;;;3.00;;
38779;SDS011;29273;49.962;9.768;2023-05-23T02:55:08;3.05;;;2.75;;
38779;SDS011;29273;49.962;9.768;2023-05-23T02:57:39;3.63;;;3.33;;
38779;SDS011;29273;49.962;9.768;2023-05-23T03:00:05;3.67;;;3.38;;
38779;SDS011;29273;49.962;9.768;2023-05-23T03:02:32;3.17;;;2.88;;
38779;SDS011;29273;49.962;9.768;2023-05-23T03:04:58;3.90;;;3.50;;
38779;SDS011;29273;49.962;9.768;2023-05-23T03:07:23;3.78;;;3.40;;
38779;SDS011;29273;49.962;9.768;2023-05-23T03:09:50;3.35;;;3.05;;
38779;SDS011;29273;49.962;9.768;2023-05-23T03:12:16;3.78;;;3.22;;
38779;SDS011;29273;49.962;9.768;2023-05-23T03:14:41;3.90;;;3.53;;
38779;SDS011;29273;49.962;9.768;2023-05-23T03:17:07;3.53;;;3.20;;
38779;SDS011;29273;49.962;9.768;2023-05-23T03:19:33;3.80;;;3.40;;
38779;SDS011;29273;49.962;9.768;2023-05-23T03:21:58;3.80;;;3.45;;
38779;SDS011;29273;49.962;9.768;2023-05-23T03:24:24;3.78;;;3.28;;
38779;SDS011;29273;49.962;9.768;2023-05-23T03:26:50;3.78;;;3.45;;
38779;SDS011;29273;49.962;9.768;2023-05-23T03:29:16;4.00;;;3.60;;
38779;SDS011;29273;49.962;9.768;2023-05-23T03:31:42;3.90;;;3.50;;
38779;SDS011;29273;49.962;9.768;2023-05-23T03:34:07;4.28;;;3.60;;
38779;SDS011;29273;49.962;9.768;2023-05-23T03:36:34;3.88;;;3.42;;
38779;SDS011;29273;49.962;9.768;2023-05-23T03:39:04;4.20;;;3.80;;
38779;SDS011;29273;49.962;9.768;2023-05-23T03:41:30;4.55;;;3.78;;
38779;SDS011;29273;49.962;9.768;2023-05-23T03:43:55;3.97;;;3.50;;
38779;SDS011;29273;49.962;9.768;2023-05-23T03:46:21;4.35;;;3.80;;
38779;SDS011;29273;49.962;9.768;2023-05-23T03:48:46;4.25;;;3.85;;
38779;SDS011;29273;49.962;9.768;2023-05-23T03:51:12;4.18;;;3.78;;
38779;SDS011;29273;49.962;9.768;2023-05-23T03:53:38;4.30;;;3.90;;
38779;SDS011;29273;49.962;9.768;2023-05-23T03:56:04;3.90;;;3.60;;
38779;SDS011;29273;49.962;9.768;2023-05-23T03:58:30;4.28;;;3.88;;
38779;SDS011;29273;49.962;9.768;2023-05-23T04:00:59;4.00;;;3.47;;
38779;SDS011;29273;49.962;9.768;2023-05-23T04:03:26;3.60;;;3.30;;
38779;SDS011;29273;49.962;9.768;2023-05-23T04:05:51;3.92;;;3.53;;
38779;SDS011;29273;49.962;9.768;2023-05-23T04:08:17;5.07;;;3.85;;
38779;SDS011;29273;49.962;9.768;2023-05-23T04:10:47;3.97;;;3.63;;
38779;SDS011;29273;49.962;9.768;2023-05-23T04:13:12;4.22;;;3.45;;
38779;SDS011;29273;49.962;9.768;2023-05-23T04:15:39;5.57;;;4.03;;
38779;SDS011;29273;49.962;9.768;2023-05-23T04:18:08;4.43;;;4.00;;
38779;SDS011;29273;49.962;9.768;2023-05-23T04:20:34;4.22;;;3.83;;
38779;SDS011;29273;49.962;9.768;2023-05-23T04:23:00;4.22;;;3.83;;
38779;SDS011;29273;49.962;9.768;2023-05-23T04:25:26;3.85;;;3.47;;
38779;SDS011;29273;49.962;9.768;2023-05-23T04:28:18;4.90;;;4.40;;
38779;SDS011;29273;49.962;9.768;2023-05-23T04:30:43;4.18;;;3.78;;
38779;SDS011;29273;49.962;9.768;2023-05-23T04:33:09;4.40;;;4.00;;
38779;SDS011;29273;49.962;9.768;2023-05-23T04:35:36;4.22;;;3.83;;
38779;SDS011;29273;49.962;9.768;2023-05-23T04:38:05;4.57;;;4.10;;
38779;SDS011;29273;49.962;9.768;2023-05-23T04:40:31;4.50;;;3.85;;
38779;SDS011;29273;49.962;9.768;2023-05-23T04:43:12;4.35;;;3.95;;
38779;SDS011;29273;49.962;9.768;2023-05-23T04:45:50;4.57;;;3.97;;
38779;SDS011;29273;49.962;9.768;2023-05-23T04:48:27;4.40;;;4.00;;
38779;SDS011;29273;49.962;9.768;2023-05-23T04:50:55;4.35;;;3.95;;
38779;SDS011;29273;49.962;9.768;2023-05-23T04:53:21;4.57;;;4.13;;
38779;SDS011;29273;49.962;9.768;2023-05-23T04:55:47;4.80;;;4.32;;
38779;SDS011;29273;49.962;9.768;2023-05-23T04:58:15;4.72;;;3.75;;
38779;SDS011;29273;49.962;9.768;2023-05-23T05:00:41;5.30;;;4.25;;
38779;SDS011;29273;49.962;9.768;2023-05-23T05:03:07;4.50;;;4.10;;
38779;SDS011;29273;49.962;9.768;2023-05-23T05:05:37;5.13;;;4.60;;
38779;SDS011;29273;49.962;9.768;2023-05-23T05:08:02;5.00;;;4.50;;
38779;SDS011;29273;49.962;9.768;2023-05-23T05:10:28;5.00;;;4.50;;
38779;SDS011;29273;49.962;9.768;2023-05-23T05:12:53;5.28;;;4.28;;
38779;SDS011;29273;49.962;9.768;2023-05-23T05:15:19;5.63;;;4.25;;
38779;SDS011;29273;49.962;9.768;2023-05-23T05:17:47;5.30;;;4.80;;
38779;SDS011;29273;49.962;9.768;2023-05-23T05:20:15;4.85;;;4.35;;
38779;SDS011;29273;49.962;9.768;2023-05-23T05:22:41;5.60;;;4.82;;
38779;SDS011;29273;49.962;9.768;2023-05-23T05:25:10;5.57;;;4.32;;
38779;SDS011;29273;49.962;9.768;2023-05-23T05:27:36;5.25;;;4.75;;
38779;SDS011;29273;49.962;9.768;2023-05-23T05:30:05;5.85;;;5.05;;
38779;SDS011;29273;49.962;9.768;2023-05-23T05:32:35;4.90;;;4.40;;
38779;SDS011;29273;49.962;9.768;2023-05-23T05:35:01;4.97;;;4.50;;
38779;SDS011;29273;49.962;9.768;2023-05-23T05:37:27;4.90;;;4.50;;
38779;SDS011;29273;49.962;9.768;2023-05-23T05:39:54;4.50;;;4.07;;
38779;SDS011;29273;49.962;9.768;2023-05-23T05:42:20;5.47;;;4.80;;
38779;SDS011;29273;49.962;9.768;2023-05-23T05:44:47;5.97;;;4.70;;
38779;SDS011;29273;49.962;9.768;2023-05-23T05:47:13;5.13;;;4.43;;
38779;SDS011;29273;49.962;9.768;2023-05-23T05:49:38;5.00;;;4.53;;
38779;SDS011;29273;49.962;9.768;2023-05-23T05:52:07;4.72;;;4.22;;
38779;SDS011;29273;49.962;9.768;2023-05-23T05:54:33;4.65;;;4.15;;
38779;SDS011;29273;49.962;9.768;2023-05-23T05:56:59;4.18;;;3.78;;
38779;SDS011;29273;49.962;9.768;2023-05-23T05:59:25;4.38;;;3.80;;
38779;SDS011;29273;49.962;9.768;2023-05-23T06:01:51;4.22;;;3.70;;
38779;SDS011;29273;49.962;9.768;2023-05-23T06:04:17;3.88;;;3.50;;
38779;SDS011;29273;49.962;9.768;2023-05-23T06:06:43;3.63;;;3.33;;
38779;SDS011;29273;49.962;9.768;2023-05-23T06:09:09;4.05;;;3.60;;
38779;SDS011;29273;49.962;9.768;2023-05-23T06:11:35;4.13;;;3.58;;
38779;SDS011;29273;49.962;9.768;2023-05-23T06:14:06;3.50;;;3.20;;
38779;SDS011;29273;49.962;9.768;2023-05-23T06:16:34;4.13;;;3.53;;
38779;SDS011;29273;49.962;9.768;2023-05-23T06:18:59;3.70;;;3.38;;
38779;SDS011;29273;49.962;9.768;2023-05-23T06:21:27;3.17;;;2.88;;
38779;SDS011;29273;49.962;9.768;2023-05-23T06:23:53;3.28;;;2.97;;
38779;SDS011;29273;49.962;9.768;2023-05-23T06:26:18;3.92;;;3.15;;
38779;SDS011;29273;49.962;9.768;2023-05-23T06:28:43;3.90;;;3.50;;
38779;SDS011;29273;49.962;9.768;2023-05-23T06:31:09;4.10;;;3.50;;
38779;SDS011;29273;49.962;9.768;2023-05-23T06:33:35;4.05;;;3.17;;
38779;SDS011;29273;49.962;9.768;2023-05-23T06:36:00;3.38;;;3.08;;
38779;SDS011;29273;49.962;9.768;2023-05-23T06:38:27;3.53;;;3.10;;
38779;SDS011;29273;49.962;9.768;2023-05-23T06:40:54;3.75;;;3.42;;
38779;SDS011;29273;49.962;9.768;2023-05-23T06:43:19;3.22;;;2.92;;
38779;SDS011;29273;49.962;9.768;2023-05-23T06:45:50;3.78;;;3.47;;
38779;SDS011;29273;49.962;9.768;2023-05-23T06:48:16;3.70;;;3.40;;
38779;SDS011;29273;49.962;9.768;2023-05-23T06:50:43;3.25;;;2.95;;
38779;SDS011;29273;49.962;9.768;2023-05-23T06:53:09;3.35;;;2.80;;
38779;SDS011;29273;49.962;9.768;2023-05-23T06:55:35;3.63;;;2.53;;
38779;SDS011;29273;49.962;9.768;2023-05-23T06:58:01;2.78;;;2.53;;
38779;SDS011;29273;49.962;9.768;2023-05-23T07:00:29;3.13;;;2.42;;
38779;SDS011;29273;49.962;9.768;2023-05-23T07:03:10;2.53;;;2.30;;
38779;SDS011;29273;49.962;9.768;2023-05-23T07:05:35;2.83;;;2.40;;
38779;SDS011;29273;49.962;9.768;2023-05-23T07:08:02;2.45;;;2.15;;
38779;SDS011;29273;49.962;9.768;2023-05-23T07:10:28;2.60;;;1.90;;
38779;SDS011;29273;49.962;9.768;2023-05-23T07:13:00;2.17;;;1.98;;
38779;SDS011;29273;49.962;9.768;2023-05-23T07:15:27;2.20;;;2.00;;
38779;SDS011;29273;49.962;9.768;2023-05-23T07:18:02;2.92;;;1.75;;
38779;SDS011;29273;49.962;9.768;2023-05-23T07:20:29;2.30;;;2.10;;
38779;SDS011;29273;49.962;9.768;2023-05-23T07:23:02;1.98;;;1.77;;
38779;SDS011;29273;49.962;9.768;2023-05-23T07:25:27;2.40;;;2.20;;
38779;SDS011;29273;49.962;9.768;2023-05-23T07:27:53;2.40;;;2.17;;
38779;SDS011;29273;49.962;9.768;2023-05-23T07:30:19;2.20;;;2.00;;
38779;SDS011;29273;49.962;9.768;2023-05-23T07:32:47;3.22;;;2.20;;
38779;SDS011;29273;49.962;9.768;2023-05-23T07:35:15;2.63;;;2.33;;
38779;SDS011;29273;49.962;9.768;2023-05-23T07:37:41;2.45;;;2.25;;
38779;SDS011;29273;49.962;9.768;2023-05-23T07:40:07;1.90;;;1.70;;
38779;SDS011;29273;49.962;9.768;2023-05-23T07:42:35;2.03;;;1.83;;
38779;SDS011;29273;49.962;9.768;2023-05-23T07:45:02;2.00;;;1.80;;
38779;SDS011;29273;49.962;9.768;2023-05-23T07:47:28;1.88;;;1.77;;
38779;SDS011;29273;49.962;9.768;2023-05-23T07:49:53;2.33;;;1.70;;
38779;SDS011;29273;49.962;9.768;2023-05-23T07:52:19;2.35;;;2.15;;
38779;SDS011;29273;49.962;9.768;2023-05-23T07:54:45;2.10;;;1.90;;
38779;SDS011;29273;49.962;9.768;2023-05-23T07:57:11;1.95;;;1.85;;
38779;SDS011;29273;49.962;9.768;2023-05-23T07:59:37;2.00;;;1.73;;
38779;SDS011;29273;49.962;9.768;2023-05-23T08:02:03;1.95;;;1.70;;
38779;SDS011;29273;49.962;9.768;2023-05-23T08:04:29;1.52;;;1.42;;
38779;SDS011;29273;49.962;9.768;2023-05-23T08:06:55;1.88;;;1.60;;
38779;SDS011;29273;49.962;9.768;2023-05-23T08:09:24;1.55;;;1.45;;
38779;SDS011;29273;49.962;9.768;2023-05-23T08:11:53;1.85;;;1.30;;
38779;SDS011;29273;49.962;9.768;2023-05-23T08:14:21;1.45;;;1.35;;
38779;SDS011;29273;49.962;9.768;2023-05-23T08:17:13;1.65;;;1.30;;
38779;SDS011;29273;49.962;9.768;2023-05-23T08:19:40;1.40;;;1.30;;
38779;SDS011;29273;49.962;9.768;2023-05-23T08:22:06;1.23;;;1.13;;
38779;SDS011;29273;49.962;9.768;2023-05-23T08:24:31;1.40;;;1.30;;
38779;SDS011;29273;49.962;9.768;2023-05-23T08:26:58;1.52;;;1.30;;
38779;SDS011;29273;49.962;9.768;2023-05-23T08:29:25;1.30;;;1.20;;
38779;SDS011;29273;49.962;9.768;2023-05-23T08:31:50;1.40;;;1.30;;
38779;SDS011;29273;49.962;9.768;2023-05-23T08:34:16;1.30;;;1.20;;
38779;SDS011;29273;49.962;9.768;2023-05-23T08:36:41;1.38;;;1.27;;
38779;SDS011;29273;49.962;9.768;2023-05-23T08:39:10;0.85;;;0.85;;
38779;SDS011;29273;49.962;9.768;2023-05-23T08:41:41;1.30;;;1.20;;
38779;SDS011;29273;49.962;9.768;2023-05-23T08:44:10;1.60;;;1.13;;
38779;SDS011;29273;49.962;9.768;2023-05-23T08:46:44;1.33;;;1.15;;
38779;SDS011;29273;49.962;9.768;2023-05-23T08:49:16;1.20;;;1.10;;
38779;SDS011;29273;49.962;9.768;2023-05-23T08:51:42;1.38;;;1.27;;
38779;SDS011;29273;49.962;9.768;2023-05-23T08:54:13;1.38;;;1.27;;
38779;SDS011;29273;49.962;9.768;2023-05-23T08:56:39;1.35;;;1.20;;
38779;SDS011;29273;49.962;9.768;2023-05-23T08:59:08;0.80;;;0.80;;
38779;SDS011;29273;49.962;9.768;2023-05-23T09:01:35;1.00;;;1.00;;
38779;SDS011;29273;49.962;9.768;2023-05-23T09:04:05;1.15;;;1.05;;
38779;SDS011;29273;49.962;9.768;2023-05-23T09:07:06;1.63;;;1.00;;
38779;SDS011;29273;49.962;9.768;2023-05-23T09:09:32;1.30;;;1.15;;
38779;SDS011;29273;49.962;9.768;2023-05-23T09:12:00;1.15;;;1.05;;
38779;SDS011;29273;49.962;9.768;2023-05-23T09:14:28;0.80;;;0.80;;
38779;SDS011;29273;49.962;9.768;2023-05-23T09:17:02;1.08;;;0.98;;
38779;SDS011;29273;49.962;9.768;2023-05-23T09:19:27;1.20;;;1.08;;
38779;SDS011;29273;49.962;9.768;2023-05-23T09:22:00;1.35;;;1.10;;
38779;SDS011;29273;49.962;9.768;2023-05-23T09:24:33;1.25;;;1.15;;
38779;SDS011;29273;49.962;9.768;2023-05-23T09:27:01;1.35;;;1.25;;
38779;SDS011;29273;49.962;9.768;2023-05-23T09:29:27;1.30;;;1.20;;
38779;SDS011;29273;49.962;9.768;2023-05-23T09:31:58;1.30;;;1.17;;
38779;SDS011;29273;49.962;9.768;2023-05-23T09:34:24;1.42;;;1.23;;
38779;SDS011;29273;49.962;9.768;2023-05-23T09:36:50;1.20;;;1.10;;
38779;SDS011;29273;49.962;9.768;2023-05-23T09:39:19;1.27;;;1.17;;
38779;SDS011;29273;49.962;9.768;2023-05-23T09:41:47;1.10;;;1.00;;
38779;SDS011;29273;49.962;9.768;2023-05-23T09:44:13;1.15;;;1.05;;
38779;SDS011;29273;49.962;9.768;2023-05-23T09:46:39;1.20;;;0.98;;
38779;SDS011;29273;49.962;9.768;2023-05-23T09:49:15;1.02;;;0.90;;
38779;SDS011;29273;49.962;9.768;2023-05-23T09:51:56;1.20;;;1.10;;
38779;SDS011;29273;49.962;9.768;2023-05-23T09:54:23;1.17;;;1.08;;
38779;SDS011;29273;49.962;9.768;2023-05-23T09:56:48;1.05;;;0.95;;
38779;SDS011;29273;49.962;9.768;2023-05-23T09:59:17;0.90;;;0.90;;
38779;SDS011;29273;49.962;9.768;2023-05-23T10:01:48;1.20;;;1.10;;
38779;SDS011;29273;49.962;9.768;2023-05-23T10:04:15;1.00;;;0.90;;
38779;SDS011;29273;49.962;9.768;2023-05-23T10:06:49;0.90;;;0.90;;
38779;SDS011;29273;49.962;9.768;2023-05-23T10:09:18;1.05;;;0.95;;
38779;SDS011;29273;49.962;9.768;2023-05-23T10:14:30;2.13;;;0.95;;
38779;SDS011;29273;49.962;9.768;2023-05-23T10:19:42;0.70;;;0.70;;
38779;SDS011;29273;49.962;9.768;2023-05-23T10:22:12;1.50;;;0.88;;
38779;SDS011;29273;49.962;9.768;2023-05-23T10:24:39;1.27;;;1.05;;
38779;SDS011;29273;49.962;9.768;2023-05-23T10:27:06;1.08;;;0.90;;
38779;SDS011;29273;49.962;9.768;2023-05-23T10:29:31;0.85;;;0.82;;
38779;SDS011;29273;49.962;9.768;2023-05-23T10:32:00;1.05;;;1.00;;
38779;SDS011;29273;49.962;9.768;2023-05-23T10:37:06;1.02;;;0.90;;
38779;SDS011;29273;49.962;9.768;2023-05-23T10:39:38;0.77;;;0.77;;
38779;SDS011;29273;49.962;9.768;2023-05-23T10:42:12;0.80;;;0.80;;
38779;SDS011;29273;49.962;9.768;2023-05-23T10:44:41;0.77;;;0.77;;
38779;SDS011;29273;49.962;9.768;2023-05-23T10:47:07;0.80;;;0.80;;
38779;SDS011;29273;49.962;9.768;2023-05-23T10:49:39;0.90;;;0.85;;
38779;SDS011;29273;49.962;9.768;2023-05-23T10:52:10;1.00;;;0.80;;
38779;SDS011;29273;49.962;9.768;2023-05-23T10:54:49;2.05;;;0.88;;
38779;SDS011;29273;49.962;9.768;2023-05-23T10:57:17;0.73;;;0.73;;
38779;SDS011;29273;49.962;9.768;2023-05-23T10:59:44;1.30;;;1.20;;
38779;SDS011;29273;49.962;9.768;2023-05-23T11:02:11;1.20;;;1.10;;
38779;SDS011;29273;49.962;9.768;2023-05-23T11:04:39;0.75;;;0.75;;
38779;SDS011;29273;49.962;9.768;2023-05-23T11:07:07;0.90;;;0.90;;
38779;SDS011;29273;49.962;9.768;2023-05-23T11:10:02;1.50;;;1.10;;
38779;SDS011;29273;49.962;9.768;2023-05-23T11:12:41;1.10;;;1.00;;
38779;SDS011;29273;49.962;9.768;2023-05-23T11:17:55;1.10;;;1.00;;
38779;SDS011;29273;49.962;9.768;2023-05-23T11:20:24;1.08;;;0.98;;
38779;SDS011;29273;49.962;9.768;2023-05-23T11:22:53;1.05;;;0.95;;
38779;SDS011;29273;49.962;9.768;2023-05-23T11:25:20;1.38;;;1.13;;
38779;SDS011;29273;49.962;9.768;2023-05-23T11:27:46;1.08;;;0.82;;
38779;SDS011;29273;49.962;9.768;2023-05-23T11:30:16;1.13;;;0.80;;
38779;SDS011;29273;49.962;9.768;2023-05-23T11:32:49;1.42;;;1.00;;
38779;SDS011;29273;49.962;9.768;2023-05-23T11:35:16;1.05;;;0.95;;
38779;SDS011;29273;49.962;9.768;2023-05-23T11:37:42;0.82;;;0.80;;
38779;SDS011;29273;49.962;9.768;2023-05-23T11:43:16;0.93;;;0.85;;
38779;SDS011;29273;49.962;9.768;2023-05-23T11:45:42;1.15;;;1.05;;
38779;SDS011;29273;49.962;9.768;2023-05-23T11:48:11;1.23;;;1.00;;
38779;SDS011;29273;49.962;9.768;2023-05-23T11:50:44;1.13;;;1.02;;
38779;SDS011;29273;49.962;9.768;2023-05-23T11:53:14;0.70;;;0.70;;
38779;SDS011;29273;49.962;9.768;2023-05-23T11:55:49;0.70;;;0.70;;
38779;SDS011;29273;49.962;9.768;2023-05-23T11:58:17;0.90;;;0.90;;
38779;SDS011;29273;49.962;9.768;2023-05-23T12:00:44;1.67;;;0.93;;
38779;SDS011;29273;49.962;9.768;2023-05-23T12:03:10;1.00;;;0.90;;
38779;SDS011;29273;49.962;9.768;2023-05-23T12:05:36;1.23;;;1.10;;
38779;SDS011;29273;49.962;9.768;2023-05-23T12:08:02;1.30;;;1.20;;
38779;SDS011;29273;49.962;9.768;2023-05-23T12:10:28;0.80;;;0.80;;
38779;SDS011;29273;49.962;9.768;2023-05-23T12:12:53;0.98;;;0.90;;
38779;SDS011;29273;49.962;9.768;2023-05-23T12:15:23;0.90;;;0.80;;
38779;SDS011;29273;49.962;9.768;2023-05-23T12:17:52;1.08;;;0.95;;
38779;SDS011;29273;49.962;9.768;2023-05-23T12:20:18;1.05;;;0.95;;
38779;SDS011;29273;49.962;9.768;2023-05-23T12:22:44;0.95;;;0.90;;
38779;SDS011;29273;49.962;9.768;2023-05-23T12:25:10;0.80;;;0.80;;
38779;SDS011;29273;49.962;9.768;2023-05-23T12:27:37;1.13;;;0.70;;
38779;SDS011;29273;49.962;9.768;2023-05-23T12:30:05;0.75;;;0.60;;
38779;SDS011;29273;49.962;9.768;2023-05-23T12:32:31;1.00;;;0.90;;
38779;SDS011;29273;49.962;9.768;2023-05-23T12:34:57;0.65;;;0.65;;
38779;SDS011;29273;49.962;9.768;2023-05-23T12:37:23;0.80;;;0.80;;
38779;SDS011;29273;49.962;9.768;2023-05-23T12:39:49;0.80;;;0.80;;
38779;SDS011;29273;49.962;9.768;2023-05-23T12:42:15;0.70;;;0.70;;
38779;SDS011;29273;49.962;9.768;2023-05-23T12:44:40;1.00;;;0.77;;
38779;SDS011;29273;49.962;9.768;2023-05-23T12:47:07;1.08;;;0.77;;
38779;SDS011;29273;49.962;9.768;2023-05-23T12:49:33;0.77;;;0.77;;
38779;SDS011;29273;49.962;9.768;2023-05-23T12:51:58;1.00;;;0.80;;
38779;SDS011;29273;49.962;9.768;2023-05-23T12:54:24;0.60;;;0.50;;
38779;SDS011;29273;49.962;9.768;2023-05-23T12:56:49;0.60;;;0.60;;
38779;SDS011;29273;49.962;9.768;2023-05-23T12:59:15;0.90;;;0.90;;
38779;SDS011;29273;49.962;9.768;2023-05-23T13:01:40;0.60;;;0.60;;
38779;SDS011;29273;49.962;9.768;2023-05-23T13:04:06;0.70;;;0.70;;
38779;SDS011;29273;49.962;9.768;2023-05-23T13:06:31;0.80;;;0.65;;
38779;SDS011;29273;49.962;9.768;2023-05-23T13:08:57;0.60;;;0.60;;
38779;SDS011;29273;49.962;9.768;2023-05-23T13:11:22;0.60;;;0.60;;
38779;SDS011;29273;49.962;9.768;2023-05-23T13:13:49;1.27;;;0.70;;
38779;SDS011;29273;49.962;9.768;2023-05-23T13:16:15;0.52;;;0.52;;
38779;SDS011;29273;49.962;9.768;2023-05-23T13:18:41;0.85;;;0.80;;
38779;SDS011;29273;49.962;9.768;2023-05-23T13:21:06;0.60;;;0.60;;
38779;SDS011;29273;49.962;9.768;2023-05-23T13:23:32;0.68;;;0.65;;
38779;SDS011;29273;49.962;9.768;2023-05-23T13:25:58;0.85;;;0.80;;
38779;SDS011;29273;49.962;9.768;2023-05-23T13:28:23;0.63;;;0.60;;
38779;SDS011;29273;49.962;9.768;2023-05-23T13:30:49;1.27;;;0.90;;
38779;SDS011;29273;49.962;9.768;2023-05-23T13:33:15;0.73;;;0.65;;
38779;SDS011;29273;49.962;9.768;2023-05-23T13:35:41;1.85;;;0.70;;
38779;SDS011;29273;49.962;9.768;2023-05-23T13:38:06;0.70;;;0.70;;
38779;SDS011;29273;49.962;9.768;2023-05-23T13:40:32;0.95;;;0.60;;
38779;SDS011;29273;49.962;9.768;2023-05-23T13:42:58;0.50;;;0.50;;
38779;SDS011;29273;49.962;9.768;2023-05-23T13:45:23;0.50;;;0.50;;
38779;SDS011;29273;49.962;9.768;2023-05-23T13:47:49;0.65;;;0.65;;
38779;SDS011;29273;49.962;9.768;2023-05-23T13:50:15;0.65;;;0.60;;
38779;SDS011;29273;49.962;9.768;2023-05-23T13:52:40;0.55;;;0.55;;
38779;SDS011;29273;49.962;9.768;2023-05-23T13:55:06;0.50;;;0.50;;
38779;SDS011;29273;49.962;9.768;2023-05-23T13:57:32;0.73;;;0.57;;
38779;SDS011;29273;49.962;9.768;2023-05-23T13:59:57;0.60;;;0.60;;
38779;SDS011;29273;49.962;9.768;2023-05-23T14:02:23;0.77;;;0.70;;
38779;SDS011;29273;49.962;9.768;2023-05-23T14:04:48;0.73;;;0.73;;
38779;SDS011;29273;49.962;9.768;2023-05-23T14:07:16;0.80;;;0.60;;
38779;SDS011;29273;49.962;9.768;2023-05-23T14:09:43;0.80;;;0.77;;
38779;SDS011;29273;49.962;9.768;2023-05-23T14:12:08;0.65;;;0.60;;
38779;SDS011;29273;49.962;9.768;2023-05-23T14:14:34;0.75;;;0.65;;
38779;SDS011;29273;49.962;9.768;2023-05-23T14:16:59;0.80;;;0.70;;
38779;SDS011;29273;49.962;9.768;2023-05-23T14:19:25;2.05;;;0.70;;
38779;SDS011;29273;49.962;9.768;2023-05-23T14:21:50;0.80;;;0.70;;
38779;SDS011;29273;49.962;9.768;2023-05-23T14:24:16;0.77;;;0.63;;
38779;SDS011;29273;49.962;9.768;2023-05-23T14:26:41;0.90;;;0.70;;
38779;SDS011;29273;49.962;9.768;2023-05-23T14:29:07;0.95;;;0.60;;
38779;SDS011;29273;49.962;9.768;2023-05-23T14:31:32;0.70;;;0.60;;
38779;SDS011;29273;49.962;9.768;2023-05-23T14:33:58;0.50;;;0.50;;
38779;SDS011;29273;49.962;9.768;2023-05-23T14:36:23;0.90;;;0.70;;
38779;SDS011;29273;49.962;9.768;2023-05-23T14:38:50;0.70;;;0.50;;
38779;SDS011;29273;49.962;9.768;2023-05-23T14:41:15;0.60;;;0.60;;
38779;SDS011;29273;49.962;9.768;2023-05-23T14:43:42;1.17;;;0.52;;
38779;SDS011;29273;49.962;9.768;2023-05-23T14:46:07;0.47;;;0.47;;
38779;SDS011;29273;49.962;9.768;2023-05-23T14:48:33;0.50;;;0.50;;
38779;SDS011;29273;49.962;9.768;2023-05-23T14:50:59;0.50;;;0.45;;
38779;SDS011;29273;49.962;9.768;2023-05-23T14:53:27;0.40;;;0.40;;
38779;SDS011;29273;49.962;9.768;2023-05-23T14:55:53;0.50;;;0.50;;
38779;SDS011;29273;49.962;9.768;2023-05-23T14:58:20;0.50;;;0.50;;
38779;SDS011;29273;49.962;9.768;2023-05-23T15:00:46;0.60;;;0.60;;
38779;SDS011;29273;49.962;9.768;2023-05-23T15:03:12;2.45;;;0.70;;
38779;SDS011;29273;49.962;9.768;2023-05-23T15:05:38;0.70;;;0.65;;